Time;durP1;ratioP1;P1;durP2;ratioP2;P2;SDS_P1;SDS_P2;PMS_P1;PMS_P2;Temp;Humidity;BMP_temperature;BMP_pressure;BME280_temperature;BME280_humidity;BME280_pressure;Samples;Min_cycle;Max_cycle;Signal;HPM_P1;HPM_P2
2022/04/02 00:02:02;;;;;;;3.90;1.90;;;1.60;99.90;;;;;;4997597;28;20128;-70
2022/04/02 00:04:28;;;;;;;4.90;2.40;;;1.50;99.90;;;;;;5018905;28;20504;-70
2022/04/02 00:06:54;;;;;;;4.30;2.00;;;1.50;99.90;;;;;;4994348;28;20123;-70
2022/04/02 00:09:21;;;;;;;4.93;1.95;;;1.50;99.90;;;;;;4993662;28;20486;-69
2022/04/02 00:11:48;;;;;;;6.03;2.45;;;1.50;99.90;;;;;;5016108;28;20490;-70
2022/04/02 00:14:14;;;;;;;4.55;2.20;;;1.40;99.90;;;;;;5005552;28;20060;-70
2022/04/02 00:16:40;;;;;;;6.82;2.20;;;1.30;99.90;;;;;;5002588;28;20075;-70
2022/04/02 00:19:07;;;;;;;5.32;2.03;;;1.30;99.90;;;;;;4997283;28;20045;-71
2022/04/02 00:21:34;;;;;;;4.47;2.03;;;1.20;99.90;;;;;;5002148;28;20054;-70
2022/04/02 00:24:00;;;;;;;6.60;2.38;;;1.20;99.90;;;;;;4997866;28;20128;-70
2022/04/02 00:26:26;;;;;;;4.28;2.20;;;1.20;99.90;;;;;;5013518;28;20566;-71
2022/04/02 00:28:52;;;;;;;3.88;2.33;;;1.10;99.90;;;;;;4998643;28;20080;-69
2022/04/02 00:31:21;;;;;;;5.38;2.20;;;1.10;99.90;;;;;;4998011;28;20477;-69
2022/04/02 00:33:48;;;;;;;4.47;2.15;;;1.10;99.90;;;;;;4997748;28;20081;-70
2022/04/02 00:36:17;;;;;;;4.10;2.17;;;1.10;99.90;;;;;;5010570;28;20510;-70
2022/04/02 00:38:44;;;;;;;4.45;2.10;;;1.10;99.90;;;;;;4997936;28;20104;-70
2022/04/02 00:41:10;;;;;;;4.35;2.22;;;1.00;99.90;;;;;;4990057;28;20055;-70
2022/04/02 00:43:39;;;;;;;4.65;2.38;;;1.00;99.90;;;;;;5003730;28;20410;-69
2022/04/02 00:46:11;;;;;;;6.00;2.40;;;0.90;99.90;;;;;;5010763;28;20049;-70
2022/04/02 00:48:37;;;;;;;5.82;2.42;;;0.90;99.90;;;;;;5020091;28;20037;-70
2022/04/02 00:51:06;;;;;;;4.30;2.40;;;1.70;99.90;;;;;;5015655;28;20127;-69
2022/04/02 00:53:37;;;;;;;6.22;2.30;;;0.90;99.90;;;;;;5024735;28;20049;-69
2022/04/02 00:56:05;;;;;;;6.90;2.60;;;0.90;99.90;;;;;;4999557;28;20523;-69
2022/04/02 00:58:31;;;;;;;7.72;2.58;;;0.80;99.90;;;;;;5021362;28;20486;-70
2022/04/02 01:00:57;;;;;;;3.88;2.40;;;0.90;99.90;;;;;;5021129;28;20054;-69
2022/04/02 01:03:23;;;;;;;4.47;2.50;;;0.90;99.90;;;;;;5018101;28;20128;-70
2022/04/02 01:05:50;;;;;;;10.35;2.63;;;0.80;99.90;;;;;;5023808;28;20064;-71
2022/04/02 01:08:16;;;;;;;5.55;2.65;;;0.80;99.90;;;;;;4997445;28;20128;-69
2022/04/02 01:10:42;;;;;;;5.22;2.63;;;0.80;99.90;;;;;;4984198;28;20054;-70
2022/04/02 01:13:10;;;;;;;7.88;2.50;;;0.90;99.90;;;;;;4989627;28;20516;-69
2022/04/02 01:15:39;;;;;;;5.30;3.17;;;0.90;99.90;;;;;;5018093;28;20048;-70
2022/04/02 01:18:05;;;;;;;6.18;2.67;;;0.80;99.90;;;;;;5011127;28;20052;-69
2022/04/02 01:20:31;;;;;;;6.50;2.92;;;0.80;99.90;;;;;;5001240;28;20054;-69
2022/04/02 01:22:59;;;;;;;6.78;2.65;;;0.80;99.90;;;;;;4997295;28;20053;-69
2022/04/02 01:25:31;;;;;;;7.25;2.67;;;0.80;99.90;;;;;;5023398;28;20072;-69
2022/04/02 01:28:00;;;;;;;7.55;2.70;;;0.70;99.90;;;;;;5014418;28;20414;-70
2022/04/02 01:30:27;;;;;;;5.43;2.45;;;0.70;99.90;;;;;;5013178;28;20054;-70
2022/04/02 01:32:54;;;;;;;5.28;2.50;;;0.70;99.90;;;;;;5002341;28;20057;-72
2022/04/02 01:35:21;;;;;;;5.88;2.97;;;0.70;99.90;;;;;;5002017;28;20049;-72
2022/04/02 01:37:48;;;;;;;5.35;2.53;;;0.70;99.90;;;;;;5011679;28;20518;-69
2022/04/02 01:40:14;;;;;;;4.72;2.35;;;0.70;99.90;;;;;;5011988;28;20546;-69
2022/04/02 01:42:41;;;;;;;5.65;2.65;;;0.70;99.90;;;;;;5003450;28;20037;-69
2022/04/02 01:45:08;;;;;;;5.88;2.45;;;0.60;99.90;;;;;;5000658;28;20142;-70
2022/04/02 01:47:34;;;;;;;5.38;2.80;;;0.60;99.90;;;;;;5020348;28;20049;-69
2022/04/02 01:50:00;;;;;;;6.82;2.78;;;0.60;99.90;;;;;;5001973;28;20514;-69
2022/04/02 01:52:26;;;;;;;5.20;2.28;;;0.70;99.90;;;;;;5018264;28;20482;-71
2022/04/02 01:54:52;;;;;;;5.35;2.20;;;0.70;99.90;;;;;;5003226;28;20142;-70
2022/04/02 01:57:19;;;;;;;7.88;2.88;;;0.70;99.90;;;;;;4995314;28;20050;-70
2022/04/02 01:59:47;;;;;;;5.85;2.45;;;1.70;99.90;;;;;;5007632;28;20371;-69
2022/04/02 02:02:14;;;;;;;5.55;2.38;;;0.70;99.90;;;;;;5015670;28;20410;-69
2022/04/02 02:04:40;;;;;;;4.32;2.65;;;0.70;99.90;;;;;;5020266;28;20486;-69
2022/04/02 02:07:07;;;;;;;5.55;2.38;;;0.70;99.90;;;;;;4992342;28;20544;-72
2022/04/02 02:09:33;;;;;;;5.13;2.42;;;0.70;99.90;;;;;;4985710;28;20064;-69
2022/04/02 02:12:00;;;;;;;7.10;2.60;;;0.60;99.90;;;;;;5013008;28;20126;-71
2022/04/02 02:14:26;;;;;;;5.10;2.53;;;0.60;99.90;;;;;;4999259;28;20192;-69
2022/04/02 02:16:52;;;;;;;7.13;2.80;;;0.60;99.90;;;;;;5018260;28;20136;-69
2022/04/02 02:19:18;;;;;;;4.60;2.50;;;0.60;99.90;;;;;;5000525;28;20054;-70
2022/04/02 02:21:44;;;;;;;8.30;2.22;;;0.60;99.90;;;;;;5009860;28;20050;-70
2022/04/02 02:24:10;;;;;;;3.92;2.17;;;0.60;99.90;;;;;;4995366;28;20049;-70
2022/04/02 02:26:36;;;;;;;6.57;2.83;;;0.50;99.90;;;;;;4995964;28;20054;-69
2022/04/02 02:29:06;;;;;;;6.60;2.80;;;0.50;99.90;;;;;;5009272;28;20045;-69
2022/04/02 02:31:33;;;;;;;8.38;2.53;;;0.50;99.90;;;;;;4998107;28;20487;-71
2022/04/02 02:36:44;;;;;;;5.47;2.00;;;0.50;99.90;;;;;;5011575;28;20053;-70
2022/04/02 02:39:10;;;;;;;5.50;2.63;;;0.50;99.90;;;;;;5012856;28;20051;-70
2022/04/02 02:41:36;;;;;;;8.02;2.63;;;0.50;99.90;;;;;;5000171;28;20046;-70
2022/04/02 02:44:02;;;;;;;3.30;2.03;;;0.40;99.90;;;;;;5016238;28;20049;-69
2022/04/02 02:46:29;;;;;;;4.47;2.22;;;0.50;99.90;;;;;;5012892;28;20077;-69
2022/04/02 02:48:55;;;;;;;5.57;2.20;;;0.40;99.90;;;;;;5018938;28;20046;-70
2022/04/02 02:51:21;;;;;;;3.97;2.13;;;0.50;99.90;;;;;;5010002;28;20386;-69
2022/04/02 02:53:47;;;;;;;8.00;2.40;;;0.50;99.90;;;;;;5020944;28;20827;-70
2022/04/02 02:56:13;;;;;;;5.28;2.30;;;0.50;99.90;;;;;;4984072;28;20102;-70
2022/04/02 02:58:39;;;;;;;6.18;2.53;;;0.50;99.90;;;;;;4997256;28;20049;-70
2022/04/02 03:01:05;;;;;;;5.75;2.67;;;0.40;99.90;;;;;;4979758;28;20494;-70
2022/04/02 03:03:31;;;;;;;6.35;2.47;;;0.40;99.90;;;;;;5018220;28;20049;-70
2022/04/02 03:05:57;;;;;;;5.82;2.60;;;0.70;99.90;;;;;;5018467;28;20049;-69
2022/04/02 03:08:24;;;;;;;7.07;2.90;;;0.30;99.90;;;;;;5019533;28;20406;-70
2022/04/02 03:10:49;;;;;;;3.95;2.22;;;0.40;99.90;;;;;;4994317;28;20050;-72
2022/04/02 03:13:16;;;;;;;6.18;2.20;;;0.30;99.90;;;;;;5014037;28;20049;-69
2022/04/02 03:15:42;;;;;;;5.10;2.30;;;0.30;99.90;;;;;;5010135;28;20491;-70
2022/04/02 03:18:08;;;;;;;4.25;2.30;;;0.30;99.90;;;;;;5014520;28;20046;-69
2022/04/02 03:20:36;;;;;;;6.57;2.72;;;0.30;99.90;;;;;;4975083;28;20388;-69
2022/04/02 03:23:03;;;;;;;4.68;2.15;;;1.30;99.90;;;;;;4995930;28;20084;-70
2022/04/02 03:25:29;;;;;;;8.23;2.90;;;0.30;99.90;;;;;;5009192;28;20125;-69
2022/04/02 03:27:55;;;;;;;4.45;2.15;;;0.40;99.90;;;;;;5018447;28;20136;-69
2022/04/02 03:30:23;;;;;;;4.35;2.35;;;0.30;99.90;;;;;;4978310;28;20462;-70
2022/04/02 03:32:50;;;;;;;6.10;2.60;;;0.30;99.90;;;;;;4991046;28;20388;-71
2022/04/02 03:35:17;;;;;;;5.05;2.20;;;0.30;99.90;;;;;;5005163;28;20057;-70
2022/04/02 03:37:46;;;;;;;9.73;2.63;;;0.30;99.90;;;;;;5019443;28;20478;-70
2022/04/02 03:40:17;;;;;;;5.40;2.38;;;0.30;99.90;;;;;;5010224;28;20581;-70
2022/04/02 03:42:46;;;;;;;;;;;0.30;99.90;;;;;;5002297;28;20498;-69
2022/04/02 03:45:15;;;;;;;4.68;2.20;;;0.30;99.90;;;;;;4994878;28;19988;-71
2022/04/02 03:47:42;;;;;;;5.35;2.30;;;0.30;99.90;;;;;;5004834;28;20052;-72
2022/04/02 03:50:09;;;;;;;6.13;2.42;;;0.40;99.90;;;;;;4982305;28;20042;-70
2022/04/02 03:52:36;;;;;;;5.40;2.17;;;0.30;99.90;;;;;;5000913;28;20038;-70
2022/04/02 03:55:05;;;;;;;4.95;2.10;;;0.30;99.90;;;;;;5020784;28;20153;-70
2022/04/02 03:57:31;;;;;;;5.10;2.42;;;0.30;99.90;;;;;;5003306;28;20140;-72
2022/04/02 03:59:58;;;;;;;3.42;2.15;;;0.40;99.90;;;;;;5000496;28;20050;-71
2022/04/02 04:02:24;;;;;;;4.90;2.30;;;0.30;99.90;;;;;;4984218;28;20041;-70
2022/04/02 04:04:49;;;;;;;10.27;2.53;;;0.30;99.90;;;;;;5003889;28;20095;-73
2022/04/02 04:07:15;;;;;;;5.97;2.47;;;1.30;99.90;;;;;;5003435;28;20108;-71
2022/04/02 04:09:42;;;;;;;6.97;2.67;;;0.30;99.90;;;;;;5015613;28;20049;-71
2022/04/02 04:12:11;;;;;;;5.50;2.72;;;0.20;99.90;;;;;;5003119;28;20590;-71
2022/04/02 04:14:37;;;;;;;4.78;2.42;;;1.00;99.90;;;;;;4987974;28;20053;-71
2022/04/02 04:17:03;;;;;;;5.13;2.40;;;0.90;99.90;;;;;;4993632;28;20057;-70
2022/04/02 04:19:29;;;;;;;3.83;2.33;;;0.20;99.90;;;;;;4999813;28;20050;-70
2022/04/02 04:21:56;;;;;;;6.18;2.72;;;0.20;99.90;;;;;;5014820;28;20060;-70
2022/04/02 04:24:22;;;;;;;8.38;2.60;;;0.30;99.90;;;;;;4981652;28;20053;-70
2022/04/02 04:26:48;;;;;;;7.97;2.80;;;0.30;99.90;;;;;;5017973;28;20046;-70
2022/04/02 04:29:14;;;;;;;7.57;2.92;;;0.80;99.90;;;;;;5017389;28;20053;-70
2022/04/02 04:31:40;;;;;;;9.05;2.70;;;0.40;99.90;;;;;;5016300;28;20104;-72
2022/04/02 04:34:06;;;;;;;4.93;2.22;;;0.40;99.90;;;;;;4998436;28;20057;-71
2022/04/02 04:36:32;;;;;;;5.15;2.20;;;0.40;99.90;;;;;;5012276;28;20053;-70
2022/04/02 04:38:59;;;;;;;3.90;2.40;;;0.40;99.90;;;;;;5003293;28;20485;-70
2022/04/02 04:41:25;;;;;;;6.72;2.55;;;0.50;99.90;;;;;;5014124;28;20049;-70
2022/04/02 04:43:52;;;;;;;6.85;2.88;;;1.30;99.90;;;;;;5014543;28;20495;-71
2022/04/02 04:46:19;;;;;;;4.85;2.40;;;0.60;99.90;;;;;;5006755;28;20061;-71
2022/04/02 04:48:46;;;;;;;8.48;2.63;;;0.60;99.90;;;;;;5000403;28;20041;-71
2022/04/02 04:51:12;;;;;;;6.63;2.45;;;1.10;99.90;;;;;;4985398;28;20056;-70
2022/04/02 04:53:40;;;;;;;8.13;2.65;;;1.30;99.90;;;;;;5008833;28;20045;-71
2022/04/02 04:56:07;;;;;;;10.85;2.38;;;0.60;99.90;;;;;;5012195;28;20046;-71
2022/04/02 04:58:33;;;;;;;4.75;2.63;;;0.50;99.90;;;;;;5002587;28;20455;-71
2022/04/02 05:00:59;;;;;;;6.85;2.47;;;0.50;99.90;;;;;;4998775;28;20059;-70
2022/04/02 05:03:26;;;;;;;5.22;2.63;;;0.50;99.90;;;;;;5004221;28;20426;-70
2022/04/02 05:05:53;;;;;;;7.18;2.65;;;0.60;99.90;;;;;;5003529;28;20502;-71
2022/04/02 05:08:23;;;;;;;4.90;2.80;;;0.50;99.90;;;;;;5013960;28;20050;-71
2022/04/02 05:10:49;;;;;;;7.28;2.55;;;0.40;99.90;;;;;;5005477;28;20046;-71
2022/04/02 05:13:15;;;;;;;9.70;2.90;;;0.40;99.90;;;;;;4982531;28;20490;-70
2022/04/02 05:15:42;;;;;;;6.07;2.83;;;0.40;99.90;;;;;;5013519;28;20038;-71
2022/04/02 05:18:09;;;;;;;5.63;2.60;;;0.40;99.90;;;;;;5008739;28;20049;-71
2022/04/02 05:20:37;;;;;;;10.00;3.00;;;0.30;99.90;;;;;;5001277;28;20041;-70
2022/04/02 05:23:04;;;;;;;5.55;2.80;;;1.10;99.90;;;;;;5003045;28;20046;-70
2022/04/02 05:25:33;;;;;;;7.68;3.00;;;0.30;99.90;;;;;;5013093;28;20124;-72
2022/04/02 05:27:59;;;;;;;7.90;2.78;;;0.40;99.90;;;;;;5003356;28;20058;-72
2022/04/02 05:30:29;;;;;;;9.98;2.83;;;0.40;99.90;;;;;;5012513;28;20049;-72
2022/04/02 05:32:55;;;;;;;6.60;2.72;;;0.30;99.90;;;;;;5021101;28;20077;-71
2022/04/02 05:35:22;;;;;;;6.05;2.65;;;1.10;99.90;;;;;;5026593;28;20128;-71
2022/04/02 05:37:49;;;;;;;8.38;3.30;;;0.40;99.90;;;;;;5023396;28;20053;-72
2022/04/02 05:40:16;;;;;;;6.82;2.80;;;0.40;99.90;;;;;;5019923;28;20038;-72
2022/04/02 05:42:42;;;;;;;6.00;2.88;;;0.40;99.90;;;;;;5016727;28;20152;-71
2022/04/02 05:45:08;;;;;;;7.82;3.08;;;0.40;99.90;;;;;;5021143;28;20045;-71
2022/04/02 05:47:46;;;;;;;7.20;3.28;;;0.50;99.90;;;;;;4966237;28;20383;-73
2022/04/02 05:50:14;;;;;;;9.23;3.22;;;0.50;99.90;;;;;;5011865;28;20557;-72
2022/04/02 05:52:41;;;;;;;7.05;3.58;;;0.50;99.90;;;;;;4990141;28;20062;-72
2022/04/02 05:55:11;;;;;;;8.13;3.45;;;0.50;99.90;;;;;;4996207;28;20394;-71
2022/04/02 05:57:37;;;;;;;8.73;3.05;;;0.50;99.90;;;;;;5017426;28;20042;-71
2022/04/02 06:00:11;;;;;;;7.43;3.00;;;0.50;99.90;;;;;;4997227;28;20045;-72
2022/04/02 06:02:38;;;;;;;7.85;3.00;;;0.60;99.90;;;;;;4998878;28;20050;-75
2022/04/02 06:05:09;;;;;;;6.90;2.97;;;0.60;99.90;;;;;;5004774;28;20076;-73
2022/04/02 06:07:35;;;;;;;5.68;3.45;;;0.10;99.90;;;;;;5001989;28;20053;-71
2022/04/02 06:10:04;;;;;;;6.30;3.03;;;0.80;99.90;;;;;;4998775;28;20053;-71
2022/04/02 06:12:31;;;;;;;8.45;3.10;;;0.80;99.90;;;;;;5016399;28;20081;-71
2022/04/02 06:15:00;;;;;;;6.25;3.03;;;0.90;99.90;;;;;;5014670;28;20047;-72
2022/04/02 06:17:27;;;;;;;7.35;2.92;;;1.00;99.90;;;;;;4994958;28;20407;-71
2022/04/02 06:19:53;;;;;;;7.75;3.10;;;1.10;99.90;;;;;;5018485;28;20410;-71
2022/04/02 06:22:19;;;;;;;6.47;3.15;;;1.30;99.90;;;;;;4995488;28;20053;-71
2022/04/02 06:24:45;;;;;;;6.40;3.08;;;1.50;99.90;;;;;;4990510;28;20084;-71
2022/04/02 06:27:11;;;;;;;7.78;2.90;;;1.70;99.90;;;;;;5015336;28;20505;-72
2022/04/02 06:29:37;;;;;;;5.95;2.90;;;1.90;99.90;;;;;;5004947;28;20046;-72
2022/04/02 06:32:04;;;;;;;6.30;3.00;;;2.10;99.90;;;;;;5018318;28;20049;-72
2022/04/02 06:34:30;;;;;;;6.63;3.00;;;2.30;99.90;;;;;;5006435;28;20052;-72
2022/04/02 06:36:56;;;;;;;5.22;2.78;;;2.40;99.90;;;;;;4995637;28;20090;-70
2022/04/02 06:39:22;;;;;;;9.23;2.90;;;2.60;99.90;;;;;;4996069;28;20092;-72
2022/04/02 06:41:48;;;;;;;7.90;3.53;;;2.70;99.90;;;;;;5018039;28;20053;-70
2022/04/02 06:44:14;;;;;;;4.72;2.78;;;2.80;99.90;;;;;;5012667;28;20061;-71
2022/04/02 06:46:40;;;;;;;7.03;2.80;;;3.00;99.90;;;;;;5010459;28;20060;-73
2022/04/02 06:49:06;;;;;;;8.20;3.00;;;3.10;99.90;;;;;;4991244;28;20411;-71
2022/04/02 06:51:33;;;;;;;5.95;3.15;;;3.20;99.90;;;;;;4994467;28;20053;-71
2022/04/02 06:53:59;;;;;;;6.28;2.88;;;3.40;99.90;;;;;;5011273;28;20049;-72
2022/04/02 06:56:25;;;;;;;4.82;2.67;;;3.50;99.90;;;;;;4987055;28;20081;-71
2022/04/02 06:58:51;;;;;;;6.47;2.35;;;3.60;99.90;;;;;;4994783;28;20045;-71
2022/04/02 07:01:17;;;;;;;5.25;2.45;;;4.40;99.90;;;;;;5011357;28;20494;-71
2022/04/02 07:03:44;;;;;;;4.60;2.50;;;3.90;99.90;;;;;;4978693;28;20050;-71
2022/04/02 07:06:10;;;;;;;7.20;2.80;;;4.00;99.90;;;;;;5010843;28;20116;-69
2022/04/02 07:08:36;;;;;;;5.07;2.60;;;4.20;99.90;;;;;;5010538;28;20058;-69
2022/04/02 07:11:03;;;;;;;7.32;2.80;;;4.30;99.90;;;;;;5010948;28;20057;-70
2022/04/02 07:13:29;;;;;;;5.32;3.10;;;4.50;99.90;;;;;;4979088;28;20042;-70
2022/04/02 07:15:56;;;;;;;5.18;2.50;;;4.60;99.90;;;;;;5010146;28;20510;-69
2022/04/02 07:18:24;;;;;;;7.43;2.83;;;4.70;99.90;;;;;;5010571;28;20478;-70
2022/04/02 07:20:53;;;;;;;5.03;2.25;;;4.80;99.90;;;;;;4994562;28;20045;-72
2022/04/02 07:23:21;;;;;;;6.78;2.60;;;4.80;99.90;;;;;;4979437;28;20053;-72
2022/04/02 07:25:50;;;;;;;10.27;2.20;;;4.90;99.90;;;;;;4994393;28;20359;-70
2022/04/02 07:28:16;;;;;;;6.95;2.35;;;5.00;99.90;;;;;;5010953;28;20042;-70
2022/04/02 07:30:42;;;;;;;5.20;2.35;;;5.00;99.90;;;;;;4993489;28;20179;-70
2022/04/02 07:33:08;;;;;;;6.13;2.33;;;5.20;99.90;;;;;;5015289;28;20053;-71
2022/04/02 07:35:41;;;;;;;6.57;2.45;;;5.20;99.90;;;;;;4996867;28;20089;-70
2022/04/02 07:38:16;;;;;;;6.55;2.28;;;5.30;99.90;;;;;;5015449;28;20060;-69
2022/04/02 07:40:51;;;;;;;5.88;2.50;;;5.50;99.90;;;;;;5013578;28;20049;-70
2022/04/02 07:43:42;;;;;;;8.45;2.50;;;5.80;99.90;;;;;;5007685;28;20078;-70
2022/04/02 07:46:16;;;;;;;7.05;2.67;;;5.90;99.90;;;;;;5000012;28;20112;-70
2022/04/02 07:48:45;;;;;;;4.88;2.60;;;5.90;99.90;;;;;;5010476;28;20049;-70
2022/04/02 07:51:13;;;;;;;4.63;2.25;;;6.00;99.90;;;;;;4994795;28;20125;-70
2022/04/02 07:53:45;;;;;;;5.82;2.30;;;6.20;99.90;;;;;;5014303;28;20813;-70
2022/04/02 07:56:36;;;;;;;6.07;2.38;;;6.10;99.90;;;;;;5013378;28;20124;-70
2022/04/02 07:59:11;;;;;;;3.88;2.22;;;6.10;99.90;;;;;;5000148;28;20115;-70
2022/04/02 08:01:39;;;;;;;7.07;2.65;;;6.00;99.90;;;;;;5010473;28;20054;-70
2022/04/02 08:04:05;;;;;;;6.15;2.40;;;5.80;99.90;;;;;;5010437;28;20089;-70
2022/04/02 08:06:32;;;;;;;4.60;2.50;;;5.80;99.90;;;;;;4994038;28;20046;-71
2022/04/02 08:09:02;;;;;;;3.55;1.90;;;5.80;99.90;;;;;;5007353;28;20515;-69
2022/04/02 08:11:29;;;;;;;4.93;2.00;;;5.90;99.90;;;;;;5007327;28;20479;-70
2022/04/02 08:13:57;;;;;;;5.50;2.13;;;5.90;99.90;;;;;;5014130;28;20060;-70
2022/04/02 08:16:23;;;;;;;4.65;2.10;;;6.00;99.90;;;;;;4984364;28;20065;-70
2022/04/02 08:18:51;;;;;;;6.70;2.30;;;5.90;99.90;;;;;;5000273;28;20053;-72
2022/04/02 08:21:17;;;;;;;7.18;2.20;;;6.20;99.90;;;;;;4995642;28;20092;-70
2022/04/02 08:23:43;;;;;;;3.20;1.70;;;6.30;99.90;;;;;;4996961;28;20041;-69
2022/04/02 08:26:23;;;;;;;4.57;2.10;;;6.50;99.90;;;;;;5000001;28;20054;-70
2022/04/02 08:29:08;;;;;;;3.92;1.85;;;6.50;99.90;;;;;;5002975;28;20391;-72
2022/04/02 08:32:02;;;;;;;6.28;1.80;;;6.70;99.90;;;;;;5010675;28;20047;-70
2022/04/02 08:34:46;;;;;;;4.50;1.90;;;6.50;99.90;;;;;;5012523;28;20491;-70
2022/04/02 08:37:34;;;;;;;4.65;1.80;;;6.70;99.90;;;;;;5013867;28;20052;-71
2022/04/02 08:40:27;;;;;;;3.72;1.80;;;6.60;99.90;;;;;;5013525;28;20129;-72
2022/04/02 08:43:14;;;;;;;3.08;2.03;;;6.80;99.90;;;;;;5011325;28;20525;-71
2022/04/02 08:46:15;;;;;;;7.13;1.90;;;6.80;99.90;;;;;;5013241;28;20483;-72
2022/04/02 08:49:07;;;;;;;3.92;2.00;;;6.80;99.90;;;;;;4995524;28;20056;-71
2022/04/02 08:51:48;;;;;;;4.20;1.70;;;6.90;99.90;;;;;;4993147;28;20049;-71
2022/04/02 08:54:23;;;;;;;3.80;1.63;;;7.00;99.90;;;;;;5013880;28;20073;-71
2022/04/02 08:56:55;;;;;;;3.05;1.52;;;6.80;99.90;;;;;;5012471;28;20368;-72
2022/04/02 08:59:37;;;;;;;3.50;1.75;;;6.70;99.90;;;;;;4993608;28;20487;-71
2022/04/02 09:02:21;;;;;;;3.97;1.75;;;6.60;99.90;;;;;;5011849;28;20506;-71
2022/04/02 09:05:08;;;;;;;3.97;1.83;;;6.30;99.90;;;;;;5014811;28;20119;-71
2022/04/02 09:08:08;;;;;;;3.58;1.48;;;6.10;99.90;;;;;;5012948;28;20050;-71
2022/04/02 09:11:11;;;;;;;2.78;1.13;;;6.00;99.90;;;;;;5013445;28;20478;-71
2022/04/02 09:14:04;;;;;;;4.35;1.42;;;6.00;99.90;;;;;;4997007;28;20053;-72
2022/04/02 09:17:08;;;;;;;3.13;1.30;;;6.00;99.90;;;;;;5012041;28;20061;-73
2022/04/02 09:19:43;;;;;;;4.65;1.38;;;6.20;99.90;;;;;;4995973;28;20078;-70
2022/04/02 09:22:50;;;;;;;4.07;1.30;;;6.10;99.90;;;;;;5006037;28;20096;-73
2022/04/02 09:25:51;;;;;;;4.03;1.27;;;6.20;99.90;;;;;;4987064;28;20498;-71
2022/04/02 09:28:35;;;;;;;2.90;1.40;;;6.40;99.90;;;;;;4977626;28;20059;-77
2022/04/02 09:31:04;;;;;;;3.20;1.40;;;6.40;99.90;;;;;;5015929;28;20050;-72
2022/04/02 09:34:07;;;;;;;3.45;1.30;;;7.10;99.90;;;;;;4996741;28;20112;-72
2022/04/02 09:36:59;;;;;;;2.58;1.58;;;7.00;99.90;;;;;;4997739;28;20053;-71
2022/04/02 09:39:37;;;;;;;6.85;1.70;;;7.20;99.90;;;;;;5022258;28;20064;-71
2022/04/02 09:42:21;;;;;;;4.43;1.65;;;7.30;99.90;;;;;;5013110;28;20057;-72
2022/04/02 09:45:13;;;;;;;4.43;1.60;;;7.50;99.90;;;;;;5015316;28;20054;-74
2022/04/02 09:47:59;;;;;;;3.33;1.40;;;7.40;99.90;;;;;;5024504;28;20058;-74
2022/04/02 09:50:27;;;;;;;3.35;1.60;;;7.50;99.90;;;;;;5028827;28;20054;-72
2022/04/02 09:53:13;;;;;;;4.30;1.90;;;7.60;99.90;;;;;;5000560;28;20132;-71
2022/04/02 09:56:20;;;;;;;5.47;2.05;;;7.70;99.90;;;;;;5015084;28;20042;-76
2022/04/02 09:59:51;;;;;;;5.82;1.90;;;7.60;99.90;;;;;;5013759;28;20498;-73
2022/04/02 10:02:41;;;;;;;3.63;1.83;;;7.30;99.90;;;;;;4948512;28;20118;-72
2022/04/02 10:05:08;;;;;;;5.50;1.80;;;7.00;99.90;;;;;;4955181;28;20183;-72
2022/04/02 10:08:03;;;;;;;5.45;1.80;;;6.90;99.90;;;;;;5002276;28;20128;-75
2022/04/02 10:10:30;;;;;;;5.13;1.80;;;6.80;99.90;;;;;;5000389;28;20145;-71
2022/04/02 10:12:57;;;;;;;5.40;1.58;;;6.80;99.90;;;;;;5011771;28;20121;-71
2022/04/02 10:15:24;;;;;;;2.10;1.45;;;6.70;99.90;;;;;;5011060;28;20065;-71
2022/04/02 10:17:53;;;;;;;3.78;1.63;;;6.60;98.60;;;;;;4999599;28;20042;-70
2022/04/02 10:20:28;;;;;;;3.45;1.50;;;6.50;99.90;;;;;;5012293;28;20618;-69
2022/04/02 10:23:14;;;;;;;3.30;1.60;;;6.70;99.90;;;;;;5006288;28;20042;-69
2022/04/02 10:26:16;;;;;;;2.80;1.40;;;7.30;95.30;;;;;;5012259;28;20046;-76
2022/04/02 10:28:57;;;;;;;2.40;1.20;;;7.90;77.60;;;;;;4970359;28;20061;-70
2022/04/02 10:31:37;;;;;;;;;;;8.20;74.30;;;;;;5012236;28;20038;-72
2022/04/02 10:34:15;;;;;;;5.40;1.20;;;8.20;65.00;;;;;;5010275;28;19932;-71
2022/04/02 10:36:52;;;;;;;3.42;1.27;;;8.00;70.30;;;;;;4991984;28;20050;-70
2022/04/02 10:39:23;;;;;;;6.68;1.48;;;7.80;75.60;;;;;;5012655;28;20615;-70
2022/04/02 10:41:59;;;;;;;6.70;1.52;;;7.40;78.50;;;;;;4995204;28;20049;-71
2022/04/02 10:44:42;;;;;;;4.68;1.35;;;7.10;81.10;;;;;;4994683;28;20494;-71
2022/04/02 10:47:12;;;;;;;3.38;1.65;;;6.90;87.60;;;;;;5009405;28;20494;-71
2022/04/02 10:49:40;;;;;;;4.32;1.50;;;6.80;90.40;;;;;;4994196;28;20525;-72
2022/04/02 10:52:11;;;;;;;3.88;1.67;;;6.70;93.80;;;;;;4997227;28;20124;-70
2022/04/02 10:54:40;;;;;;;3.83;1.60;;;6.70;99.90;;;;;;4995013;28;20045;-71
2022/04/02 10:57:06;;;;;;;5.03;1.40;;;6.70;99.90;;;;;;5006850;28;20092;-71
2022/04/02 10:59:32;;;;;;;2.03;1.30;;;6.90;99.90;;;;;;5011053;28;20053;-70
2022/04/02 11:02:00;;;;;;;3.38;1.60;;;7.10;99.90;;;;;;5010564;28;20053;-72
2022/04/02 11:04:46;;;;;;;2.08;1.30;;;7.50;86.50;;;;;;4991391;28;20495;-72
2022/04/02 11:07:27;;;;;;;1.67;1.20;;;7.70;83.40;;;;;;4989017;28;20049;-71
2022/04/02 11:09:53;;;;;;;2.78;1.30;;;7.50;77.10;;;;;;5011337;28;20117;-71
2022/04/02 11:12:41;;;;;;;2.83;1.30;;;7.40;79.50;;;;;;4995836;28;20125;-71
2022/04/02 11:15:20;;;;;;;3.40;1.40;;;7.30;78.80;;;;;;5010726;28;20046;-72
2022/04/02 11:17:51;;;;;;;3.85;1.50;;;7.30;77.00;;;;;;5011274;28;20060;-71
2022/04/02 11:20:21;;;;;;;4.57;1.77;;;7.00;78.30;;;;;;5013047;28;20498;-73
2022/04/02 11:22:59;;;;;;;3.63;1.40;;;6.90;78.80;;;;;;4997526;28;20132;-69
2022/04/02 11:25:31;;;;;;;4.05;1.60;;;6.70;78.40;;;;;;5004589;28;20041;-71
2022/04/02 11:28:11;;;;;;;2.85;1.70;;;6.70;83.20;;;;;;4998194;28;20546;-71
2022/04/02 11:30:50;;;;;;;4.75;1.80;;;6.60;92.00;;;;;;4993955;28;20073;-71
2022/04/02 11:33:18;;;;;;;5.15;1.70;;;6.50;90.30;;;;;;5017821;28;20041;-70
2022/04/02 11:35:58;;;;;;;4.20;1.60;;;6.50;93.60;;;;;;5028723;28;20042;-71
2022/04/02 11:38:40;;;;;;;4.07;1.58;;;6.50;87.40;;;;;;5017651;28;20046;-69
2022/04/02 11:41:20;;;;;;;2.90;1.70;;;6.50;84.70;;;;;;5009667;28;20494;-69
2022/04/02 11:43:49;;;;;;;4.95;2.17;;;6.60;91.10;;;;;;4996616;28;20387;-70
2022/04/02 11:46:16;;;;;;;2.47;1.30;;;6.60;87.70;;;;;;5013604;28;20077;-70
2022/04/02 11:48:56;;;;;;;2.97;1.63;;;6.70;90.10;;;;;;4993878;28;21445;-69
2022/04/02 11:51:35;;;;;;;2.60;1.58;;;6.70;81.90;;;;;;4993497;28;20125;-70
2022/04/02 11:54:10;;;;;;;5.45;1.30;;;6.90;84.20;;;;;;4994041;28;20050;-69
2022/04/02 11:56:37;;;;;;;3.85;1.80;;;7.30;81.80;;;;;;4993774;28;20056;-69
2022/04/02 11:59:08;;;;;;;4.88;1.60;;;7.40;82.30;;;;;;5010505;28;20050;-69
2022/04/02 12:01:44;;;;;;;3.75;1.83;;;7.50;81.00;;;;;;4994514;28;20054;-69
2022/04/02 12:04:14;;;;;;;3.20;1.50;;;7.80;87.30;;;;;;5010733;28;20160;-70
2022/04/02 12:06:42;;;;;;;2.58;1.60;;;7.70;80.00;;;;;;5010647;28;20498;-70
2022/04/02 12:09:13;;;;;;;3.17;1.70;;;7.90;79.20;;;;;;4995225;28;20128;-69
2022/04/02 12:12:03;;;;;;;3.47;1.83;;;8.10;77.60;;;;;;5014148;28;20391;-70
2022/04/02 12:14:30;;;;;;;3.50;1.73;;;8.50;71.60;;;;;;5012082;28;20053;-70
2022/04/02 12:17:11;;;;;;;3.28;1.70;;;9.30;73.90;;;;;;5007099;28;20129;-70
2022/04/02 12:19:39;;;;;;;3.65;1.77;;;9.60;74.70;;;;;;5010581;28;20060;-69
2022/04/02 12:22:27;;;;;;;1.85;1.20;;;9.30;71.20;;;;;;5014244;28;20053;-69
2022/04/02 12:25:01;;;;;;;3.08;1.33;;;9.10;62.40;;;;;;5014611;28;20064;-71
2022/04/02 12:27:29;;;;;;;2.28;1.42;;;8.90;63.40;;;;;;5013730;28;20038;-69
2022/04/02 12:29:57;;;;;;;3.60;1.60;;;8.80;66.60;;;;;;5014379;28;20050;-69
2022/04/02 12:32:30;;;;;;;1.90;1.45;;;8.70;66.40;;;;;;5013904;28;20099;-69
2022/04/02 12:35:09;;;;;;;3.80;1.60;;;8.50;65.90;;;;;;5013959;28;20041;-69
2022/04/02 12:37:46;;;;;;;2.88;1.92;;;8.20;66.70;;;;;;4997567;28;20049;-70
2022/04/02 12:40:27;;;;;;;4.82;1.58;;;7.90;65.30;;;;;;5013651;28;20053;-69
2022/04/02 12:43:01;;;;;;;5.63;1.85;;;7.90;65.50;;;;;;5013209;28;20061;-69
2022/04/02 12:45:30;;;;;;;1.65;1.50;;;8.00;67.40;;;;;;5013676;28;20053;-69
2022/04/02 12:48:04;;;;;;;3.75;1.30;;;8.00;65.00;;;;;;5013672;28;20125;-68
2022/04/02 12:50:53;;;;;;;2.45;1.50;;;7.80;64.90;;;;;;5014104;28;20056;-69
2022/04/02 12:53:42;;;;;;;5.22;1.30;;;8.00;64.00;;;;;;4995694;28;20050;-70
2022/04/02 12:56:23;;;;;;;3.20;1.67;;;8.00;64.20;;;;;;5003463;28;20045;-69
2022/04/02 12:58:50;;;;;;;2.15;1.30;;;7.90;65.20;;;;;;5013836;28;20405;-70
2022/04/02 13:01:25;;;;;;;2.83;1.40;;;7.80;65.80;;;;;;5013825;28;20046;-69
2022/04/02 13:03:57;;;;;;;2.60;1.65;;;8.00;66.00;;;;;;5013194;28;20191;-69
2022/04/02 13:06:24;;;;;;;3.35;1.60;;;8.00;64.80;;;;;;5013281;28;20069;-69
2022/04/02 13:09:04;;;;;;;2.28;1.60;;;7.80;63.80;;;;;;5013777;28;20056;-71
2022/04/02 13:12:18;;;;;;;5.38;1.60;;;7.80;63.20;;;;;;4997372;28;20073;-70
2022/04/02 13:15:00;;;;;;;2.58;1.60;;;7.80;64.40;;;;;;5001035;28;20148;-70
2022/04/02 13:20:28;;;;;;;3.88;1.60;;;7.90;65.90;;;;;;5001700;28;20077;-69
2022/04/02 13:20:34;;;;;;;2.78;1.55;;;8.40;63.40;;;;;;5003488;28;20406;-69
2022/04/02 13:23:02;;;;;;;3.03;1.40;;;9.00;64.50;;;;;;4981346;28;20053;-69
2022/04/02 13:25:32;;;;;;;2.72;1.48;;;9.60;62.40;;;;;;5013526;28;20046;-69